Biddeford, Maine
Current Conditions -  °F | °C
As of 7:51 PM on Saturday 22 Nov 2014 (Local Time) from KPWM Reporting Station
Overcast Overcast  
Wind Chill: 31°   Ceiling: 10000
Heat Index: 38°   Visibility: 10mi
Dew Point: 10°   Wind: 9mph
Humidity: 32%   Direction: 220°SW
Pressure: 30"   Gusts: NA
Location:  43.49°N, 70.46°W
Report Text: KPWM 230051Z 22008KT 10SM FEW070 BKN100 OVC120 03/M12 A3000 RMK AO2 SLP159 T00331122
Loading
Personal Weather Stations






























Interactive Weather Map New forecast layout! Learn more

10-Day Weather Forecast

Advertisements
Track Severe Weather on mobile